Time;durP1;ratioP1;P1;durP2;ratioP2;P2;SDS_P1;SDS_P2;PMS_P1;PMS_P2;Temp;Humidity;BMP_temperature;BMP_pressure;BME280_temperature;BME280_humidity;BME280_pressure;Samples;Min_cycle;Max_cycle;Signal;HPM_P1;HPM_P2
2022/02/16 00:01:50;;;;;;;;;46.00;38.00;;;;;2.83;100.00;101340.38;3725093;37;20831;-61
2022/02/16 00:04:18;;;;;;;;;41.75;34.25;;;;;2.82;100.00;101338.66;3725052;38;21113;-60
2022/02/16 00:06:52;;;;;;;;;41.25;37.00;;;;;2.82;100.00;101339.53;3725157;38;20904;-60
2022/02/16 00:09:21;;;;;;;;;48.50;39.75;;;;;2.82;100.00;101344.03;3724813;38;20906;-60
2022/02/16 00:11:54;;;;;;;;;50.00;40.50;;;;;2.77;100.00;101331.00;3725032;38;20943;-60
2022/02/16 00:14:23;;;;;;;;;50.00;41.50;;;;;2.66;100.00;101323.78;3724925;37;20853;-60
2022/02/16 00:16:50;;;;;;;;;49.75;42.00;;;;;2.66;100.00;101330.94;3726723;38;20956;-60
2022/02/16 00:19:19;;;;;;;;;45.25;37.00;;;;;2.64;100.00;101332.88;3726673;37;20910;-60
2022/02/16 00:21:48;;;;;;;;;46.25;39.00;;;;;2.60;100.00;101318.06;3725765;38;20938;-60
2022/02/16 00:24:15;;;;;;;;;50.00;41.00;;;;;2.64;100.00;101320.38;3724979;37;20888;-60
2022/02/16 00:26:51;;;;;;;;;42.50;35.50;;;;;2.64;100.00;101330.19;3724915;38;20931;-60
2022/02/16 00:29:19;;;;;;;;;46.75;38.25;;;;;2.66;100.00;101323.78;3724568;38;20931;-60
2022/02/16 00:31:47;;;;;;;;;61.25;47.00;;;;;2.61;100.00;101327.75;3724562;37;20863;-60
2022/02/16 00:34:16;;;;;;;;;58.75;47.00;;;;;2.45;100.00;101316.50;3724867;37;20914;-61
2022/02/16 00:36:44;;;;;;;;;55.75;46.00;;;;;2.31;100.00;101322.88;3724988;38;20842;-60
2022/02/16 00:39:13;;;;;;;;;57.25;45.00;;;;;2.35;100.00;101324.34;3724469;37;20971;-61
2022/02/16 00:41:41;;;;;;;;;55.00;43.50;;;;;2.37;100.00;101329.56;3724881;37;20897;-61
2022/02/16 00:44:12;;;;;;;;;49.50;41.00;;;;;2.41;100.00;101325.72;3724946;38;20892;-61
2022/02/16 00:46:43;;;;;;;;;50.50;41.75;;;;;2.44;100.00;101322.81;3724963;38;21096;-61
2022/02/16 00:49:11;;;;;;;;;54.50;41.75;;;;;2.42;100.00;101322.94;3724998;37;20908;-61
2022/02/16 00:51:38;;;;;;;;;48.75;40.25;;;;;2.38;100.00;101317.94;3724877;38;20881;-61
2022/02/16 00:54:07;;;;;;;;;51.00;40.00;;;;;2.39;100.00;101316.97;3724973;38;21112;-60
2022/02/16 00:56:35;;;;;;;;;55.25;42.75;;;;;2.43;100.00;101323.78;3724905;38;20870;-60
2022/02/16 00:59:06;;;;;;;;;51.00;41.25;;;;;2.39;100.00;101322.31;3724410;38;20795;-60
2022/02/16 01:01:35;;;;;;;;;56.50;46.00;;;;;2.34;100.00;101311.97;3724299;37;20712;-60
2022/02/16 01:04:04;;;;;;;;;63.00;48.00;;;;;2.28;100.00;101309.72;3724366;37;20915;-60
2022/02/16 01:06:32;;;;;;;;;60.50;49.25;;;;;2.31;100.00;101305.03;3725031;38;21109;-61
2022/02/16 01:08:59;;;;;;;;;56.25;44.00;;;;;2.24;100.00;101308.25;3724872;38;20873;-61
2022/02/16 01:11:27;;;;;;;;;57.25;46.00;;;;;2.20;100.00;101296.09;3724853;37;20889;-59
2022/02/16 01:13:57;;;;;;;;;55.75;45.25;;;;;2.25;100.00;101294.78;3724930;37;20849;-59
2022/02/16 01:16:26;;;;;;;;;37.25;32.75;;;;;2.27;100.00;101294.66;3724923;38;20968;-59
2022/02/16 01:19:06;;;;;;;;;47.75;41.75;;;;;2.30;100.00;101299.78;3725037;37;20858;-59
2022/02/16 01:21:36;;;;;;;;;43.25;36.00;;;;;2.35;100.00;101294.13;3724841;37;21081;-59
2022/02/16 01:24:07;;;;;;;;;47.50;39.00;;;;;2.43;100.00;101286.38;3725129;38;20790;-59
2022/02/16 01:26:37;;;;;;;;;48.00;40.25;;;;;2.51;100.00;101279.50;3724747;37;20807;-59
2022/02/16 01:29:11;;;;;;;;;48.75;38.75;;;;;2.45;100.00;101277.28;3724597;37;20861;-59
2022/02/16 01:31:46;;;;;;;;;50.25;40.25;;;;;2.51;100.00;101279.50;3724927;37;20852;-60
2022/02/16 01:34:22;;;;;;;;;46.50;40.00;;;;;2.47;100.00;101279.84;3724461;38;20753;-59
2022/02/16 01:36:52;;;;;;;;;44.50;37.75;;;;;2.38;100.00;101262.69;3725008;38;20851;-60
2022/02/16 01:39:19;;;;;;;;;50.50;41.50;;;;;2.50;100.00;101268.94;3724982;37;20836;-60
2022/02/16 01:41:49;;;;;;;;;48.75;39.00;;;;;2.44;100.00;101269.41;3724789;38;20805;-59
2022/02/16 01:44:26;;;;;;;;;43.00;37.00;;;;;2.41;100.00;101272.28;3724939;37;21041;-60
2022/02/16 01:47:04;;;;;;;;;41.00;36.50;;;;;2.37;100.00;101271.66;3724692;38;20820;-60
2022/02/16 01:49:39;;;;;;;;;49.00;39.50;;;;;2.34;100.00;101269.22;3725010;38;20834;-61
2022/02/16 01:52:13;;;;;;;;;45.50;38.50;;;;;2.35;100.00;101264.72;3724924;38;20707;-60
2022/02/16 01:54:46;;;;;;;;;45.25;38.00;;;;;2.31;100.00;101262.28;3725128;37;20831;-60
2022/02/16 01:57:14;;;;;;;;;52.25;43.00;;;;;2.27;100.00;101260.81;3724936;38;20747;-60
2022/02/16 01:59:48;;;;;;;;;49.25;41.25;;;;;2.27;100.00;101250.13;3725214;37;20808;-60
2022/02/16 02:02:45;;;;;;;;;50.75;41.00;;;;;2.26;100.00;101252.91;3724780;38;21017;-60
2022/02/16 02:05:33;;;;;;;;;44.75;38.50;;;;;2.20;100.00;101251.53;3725107;37;20754;-60
2022/02/16 02:08:06;;;;;;;;;45.25;39.00;;;;;2.17;100.00;101249.09;3724542;38;20796;-60
2022/02/16 02:10:34;;;;;;;;;46.75;38.25;;;;;2.23;100.00;101253.13;3724351;37;20766;-61
2022/02/16 02:13:03;;;;;;;;;41.75;37.75;;;;;2.21;100.00;101252.38;3725044;37;20656;-59
2022/02/16 02:15:43;;;;;;;;;48.25;39.25;;;;;2.17;100.00;101250.91;3725010;38;20739;-60
2022/02/16 02:18:22;;;;;;;;;46.50;39.25;;;;;2.15;100.00;101244.81;3724530;37;20948;-59
2022/02/16 02:20:50;;;;;;;;;49.25;39.00;;;;;2.09;100.00;101246.13;3724847;37;20744;-59
2022/02/16 02:23:25;;;;;;;;;42.75;38.25;;;;;2.03;100.00;101248.44;3725787;37;20809;-61
2022/02/16 02:25:56;;;;;;;;;45.00;39.75;;;;;2.01;100.00;101247.69;3724966;38;20807;-60
2022/02/16 02:28:25;;;;;;;;;38.50;35.00;;;;;2.01;100.00;101251.22;3724987;37;21039;-60
2022/02/16 02:30:58;;;;;;;;;48.50;39.75;;;;;2.03;100.00;101245.75;3724780;38;20801;-61
2022/02/16 02:33:29;;;;;;;;;49.75;40.50;;;;;1.97;100.00;101247.91;3724972;37;20784;-61
2022/02/16 02:35:58;;;;;;;;;53.25;41.25;;;;;1.90;100.00;101241.31;3725022;37;20847;-61
2022/02/16 02:38:30;;;;;;;;;45.75;37.25;;;;;1.96;100.00;101251.53;3724596;38;20783;-61
2022/02/16 02:40:59;;;;;;;;;48.75;39.00;;;;;1.97;100.00;101244.38;3725035;38;20980;-60
2022/02/16 02:43:35;;;;;;;;;43.00;36.50;;;;;1.98;100.00;101246.09;3724934;38;20746;-61
2022/02/16 02:46:03;;;;;;;;;52.00;43.25;;;;;2.02;100.00;101239.56;3725059;37;20839;-60
2022/02/16 02:48:42;;;;;;;;;47.50;40.00;;;;;1.97;100.00;101242.56;3724577;37;20952;-60
2022/02/16 02:51:13;;;;;;;;;45.50;39.75;;;;;1.93;100.00;101241.09;3724823;37;20816;-61
2022/02/16 02:53:43;;;;;;;;;48.50;40.75;;;;;1.91;100.00;101240.34;3724493;37;20741;-61
2022/02/16 02:56:10;;;;;;;;;53.75;43.00;;;;;1.89;100.00;101234.25;3724879;37;20839;-60
2022/02/16 02:58:41;;;;;;;;;44.00;38.00;;;;;1.90;100.00;101238.62;3724985;37;20868;-61
2022/02/16 03:01:09;;;;;;;;;47.50;41.50;;;;;1.89;100.00;101236.06;3724991;37;20974;-59
2022/02/16 03:03:41;;;;;;;;;49.75;41.25;;;;;1.87;100.00;101235.34;3724744;38;20822;-60
2022/02/16 03:06:11;;;;;;;;;52.75;43.50;;;;;1.86;100.00;101231.81;3724903;38;20805;-60
2022/02/16 03:08:41;;;;;;;;;51.00;41.50;;;;;1.89;100.00;101238.75;3724503;38;20781;-60
2022/02/16 03:11:09;;;;;;;;;53.25;40.25;;;;;1.85;100.00;101243.44;3724479;38;20793;-60
2022/02/16 03:13:37;;;;;;;;;50.50;41.00;;;;;1.88;100.00;101245.03;3724734;38;20772;-60
2022/02/16 03:16:17;;;;;;;;;46.50;38.50;;;;;1.88;100.00;101251.25;3724850;38;20826;-59
2022/02/16 03:18:46;;;;;;;;;45.75;40.50;;;;;1.89;100.00;101254.75;3724814;37;20748;-59
2022/02/16 03:21:13;;;;;;;;;52.50;42.75;;;;;1.87;100.00;101254.88;3724189;38;20804;-59
2022/02/16 03:23:41;;;;;;;;;51.50;41.75;;;;;1.88;100.00;101263.72;3724783;37;20872;-60
2022/02/16 03:26:10;;;;;;;;;53.25;42.00;;;;;1.91;100.00;101258.16;3724802;38;20585;-61
2022/02/16 03:28:38;;;;;;;;;48.75;41.25;;;;;1.92;100.00;101259.88;3725043;37;20893;-60
2022/02/16 03:31:16;;;;;;;;;47.25;40.50;;;;;1.93;100.00;101259.75;3724737;37;20690;-60
2022/02/16 03:33:49;;;;;;;;;48.75;39.00;;;;;1.97;100.00;101263.06;3724961;37;20593;-60
2022/02/16 03:36:26;;;;;;;;;56.50;46.25;;;;;2.01;100.00;101256.53;3724357;38;20947;-59
2022/02/16 03:38:53;;;;;;;;;56.25;45.75;;;;;2.08;100.00;101259.63;3724997;38;20577;-60
2022/02/16 03:41:25;;;;;;;;;51.50;43.50;;;;;1.93;100.00;101237.56;3724890;37;20832;-60
2022/02/16 03:43:59;;;;;;;;;56.75;45.25;;;;;1.96;100.00;101246.19;3725046;37;20674;-59
2022/02/16 03:46:32;;;;;;;;;59.75;46.25;;;;;1.96;100.00;101246.19;3725087;38;20599;-60
2022/02/16 03:49:04;;;;;;;;;53.75;44.75;;;;;1.96;100.00;101240.84;3724974;38;20626;-60
2022/02/16 03:51:34;;;;;;;;;53.75;45.25;;;;;1.97;100.00;101241.72;3724985;38;20651;-60
2022/02/16 03:54:02;;;;;;;;;55.50;45.25;;;;;1.85;100.00;101250.59;3725005;38;20570;-60
2022/02/16 03:56:30;;;;;;;;;57.00;45.50;;;;;1.71;100.00;101242.72;3724981;37;20548;-60
2022/02/16 03:58:58;;;;;;;;;57.25;45.75;;;;;1.66;100.00;101249.25;3724781;37;20606;-60
2022/02/16 04:01:27;;;;;;;;;56.25;44.25;;;;;1.67;100.00;101250.09;3724404;37;20709;-60
2022/02/16 04:03:57;;;;;;;;;51.00;43.00;;;;;1.61;100.00;101245.19;3724701;37;20641;-60
2022/02/16 04:06:26;;;;;;;;;52.75;43.50;;;;;1.65;100.00;101250.22;3724356;37;20855;-60
2022/02/16 04:08:56;;;;;;;;;55.50;46.25;;;;;1.62;100.00;101234.41;3724910;37;20700;-61
2022/02/16 04:11:27;;;;;;;;;51.50;44.25;;;;;1.60;100.00;101236.34;3724880;38;20649;-60
2022/02/16 04:13:56;;;;;;;;;45.25;41.25;;;;;1.63;100.00;101237.94;3725078;38;20536;-58
2022/02/16 04:16:25;;;;;;;;;47.25;42.00;;;;;1.65;100.00;101230.69;3725269;38;20649;-62
2022/02/16 04:18:58;;;;;;;;;48.00;40.50;;;;;1.63;100.00;101233.47;3725051;38;20603;-59
2022/02/16 04:21:25;;;;;;;;;52.00;43.50;;;;;1.62;100.00;101234.41;3724805;38;20640;-60
2022/02/16 04:23:53;;;;;;;;;54.75;44.75;;;;;1.59;100.00;101234.63;3730205;38;20614;-59
2022/02/16 04:26:21;;;;;;;;;43.25;38.00;;;;;1.56;100.00;101237.53;3730702;38;20631;-59
2022/02/16 04:28:54;;;;;;;;;57.25;43.75;;;;;1.50;100.00;101238.00;3731788;38;20608;-60
2022/02/16 04:31:27;;;;;;;;;46.25;40.50;;;;;1.45;100.00;101234.78;3732689;38;20529;-60
2022/02/16 04:33:55;;;;;;;;;51.50;41.75;;;;;1.42;100.00;101229.69;3731088;38;20520;-61
2022/02/16 04:36:26;;;;;;;;;57.75;49.00;;;;;1.32;100.00;101224.13;3726018;37;20543;-60
2022/02/16 04:38:58;;;;;;;;;56.50;47.50;;;;;1.41;100.00;101240.44;3728836;37;20495;-61
2022/02/16 04:41:38;;;;;;;;;59.75;48.50;;;;;1.42;100.00;101228.81;3728066;37;20616;-59
2022/02/16 04:44:08;;;;;;;;;63.25;50.50;;;;;1.39;100.00;101231.72;3724694;38;20587;-60
2022/02/16 04:46:39;;;;;;;;;52.00;45.25;;;;;1.33;100.00;101241.00;3725032;38;20812;-61
2022/02/16 04:49:14;;;;;;;;;60.00;47.50;;;;;1.21;100.00;101237.37;3724714;37;20587;-60
2022/02/16 04:51:42;;;;;;;;;47.25;40.00;;;;;1.17;100.00;101238.53;3725283;38;20726;-61
2022/02/16 04:54:09;;;;;;;;;53.50;44.50;;;;;1.14;100.00;101227.22;3727591;37;20713;-60
2022/02/16 04:56:39;;;;;;;;;62.75;47.50;;;;;1.13;100.00;101220.19;3725407;37;20556;-61
2022/02/16 04:59:08;;;;;;;;;61.25;47.75;;;;;1.13;100.00;101230.84;3725648;37;20560;-61
2022/02/16 05:01:42;;;;;;;;;58.50;45.00;;;;;1.10;100.00;101231.91;3735104;37;20474;-59
2022/02/16 05:04:16;;;;;;;;;66.25;54.25;;;;;1.04;100.00;101236.84;3732539;37;20521;-61
2022/02/16 05:06:45;;;;;;;;;57.50;46.25;;;;;1.06;100.00;101234.91;3732057;38;20479;-61
2022/02/16 05:09:19;;;;;;;;;52.25;42.25;;;;;1.05;100.00;101236.72;3725640;38;20456;-61
2022/02/16 05:11:57;;;;;;;;;58.00;46.75;;;;;1.01;100.00;101229.91;3725043;38;20525;-59
2022/02/16 05:14:31;;;;;;;;;57.25;46.00;;;;;0.91;100.00;101237.69;3725255;37;20621;-59
2022/02/16 05:17:04;;;;;;;;;61.25;48.50;;;;;0.91;100.00;101234.16;3724958;38;20453;-61
2022/02/16 05:19:32;;;;;;;;;60.00;48.25;;;;;0.89;100.00;101236.94;3725089;37;20730;-60
2022/02/16 05:22:04;;;;;;;;;68.25;55.50;;;;;0.86;100.00;101258.47;3725063;37;20701;-61
2022/02/16 05:24:38;;;;;;;;;62.75;50.75;;;;;0.75;100.00;101257.47;3725027;38;20711;-60
2022/02/16 05:27:07;;;;;;;;;68.50;53.75;;;;;0.61;100.00;101255.75;3725134;37;20572;-59
2022/02/16 05:29:35;;;;;;;;;87.75;66.25;;;;;0.47;100.00;101261.16;3725119;37;20493;-61
2022/02/16 05:32:14;;;;;;;;;82.25;61.75;;;;;0.38;100.00;101267.09;3724941;38;17718;-59
2022/02/16 05:34:42;;;;;;;;;80.00;62.25;;;;;0.45;100.00;101269.25;3724665;37;20436;-60
2022/02/16 05:37:09;;;;;;;;;90.25;74.50;;;;;0.31;100.00;101267.50;3725005;37;20404;-61
2022/02/16 05:39:37;;;;;;;;;91.25;72.50;;;;;0.21;100.00;101268.19;3724959;38;17710;-59
2022/02/16 05:42:05;;;;;;;;;87.75;69.00;;;;;0.13;100.00;101271.34;3725004;38;17681;-60
2022/02/16 05:44:36;;;;;;;;;82.25;62.50;;;;;0.11;100.00;101280.38;3725001;37;17718;-60
2022/02/16 05:47:04;;;;;;;;;71.50;56.75;;;;;0.14;100.00;101281.03;3724939;38;20399;-60
2022/02/16 05:49:32;;;;;;;;;68.75;54.75;;;;;0.29;100.00;101279.19;3726636;37;20523;-61
2022/02/16 05:52:00;;;;;;;;;67.50;53.75;;;;;0.43;100.00;101275.62;3726222;37;20523;-61
2022/02/16 05:54:29;;;;;;;;;61.00;47.25;;;;;0.58;100.00;101275.44;3725126;38;20508;-60
2022/02/16 05:57:03;;;;;;;;;63.00;50.50;;;;;0.71;100.00;101275.47;3724956;38;20522;-61
2022/02/16 05:59:31;;;;;;;;;63.00;51.00;;;;;0.81;100.00;101286.38;3725191;38;20594;-62
2022/02/16 06:02:03;;;;;;;;;55.00;46.25;;;;;0.90;100.00;101291.09;3724943;38;20495;-63
2022/02/16 06:04:31;;;;;;;;;56.00;46.00;;;;;1.01;100.00;101285.03;3725137;37;20489;-61
2022/02/16 06:07:00;;;;;;;;;61.25;48.25;;;;;1.04;100.00;101290.16;3724824;37;20534;-61
2022/02/16 06:09:28;;;;;;;;;57.00;45.75;;;;;1.15;100.00;101282.25;3724706;37;20482;-62
2022/02/16 06:11:57;;;;;;;;;56.00;42.50;;;;;1.20;100.00;101272.97;3724945;37;20437;-61
2022/02/16 06:14:26;;;;;;;;;62.50;49.25;;;;;1.30;100.00;101282.06;3725093;37;20490;-63
2022/02/16 06:17:15;;;;;;;;;53.75;44.00;;;;;1.32;100.00;101263.28;3725481;37;20451;-62
2022/02/16 06:19:45;;;;;;;;;57.75;47.50;;;;;1.54;100.00;101278.63;3725302;38;20448;-61
2022/02/16 06:22:13;;;;;;;;;61.75;49.00;;;;;1.66;100.00;101272.41;3725390;38;20603;-61
2022/02/16 06:24:41;;;;;;;;;63.75;49.75;;;;;1.73;100.00;101275.50;3725268;38;20441;-61
2022/02/16 06:27:10;;;;;;;;;58.50;48.00;;;;;1.71;100.00;101272.09;3725244;37;20624;-62
2022/02/16 06:29:38;;;;;;;;;55.00;46.50;;;;;1.86;100.00;101279.84;3725217;38;20605;-62
2022/02/16 06:32:30;;;;;;;;;58.00;45.25;;;;;1.92;100.00;101290.09;3725110;37;20575;-62
2022/02/16 06:34:58;;;;;;;;;49.75;42.50;;;;;1.93;100.00;101278.44;3724860;38;20373;-63
2022/02/16 06:37:27;;;;;;;;;57.25;46.50;;;;;2.02;100.00;101281.41;3725130;37;20404;-63
2022/02/16 06:39:59;;;;;;;;;61.25;48.50;;;;;2.07;100.00;101274.78;3725086;37;20392;-62
2022/02/16 06:42:28;;;;;;;;;56.75;46.25;;;;;2.18;100.00;101277.50;3725267;37;20360;-63
2022/02/16 06:44:55;;;;;;;;;54.00;44.75;;;;;2.21;100.00;101279.94;3725257;38;20382;-63
2022/02/16 06:47:32;;;;;;;;;64.50;53.00;;;;;2.21;100.00;101282.62;3725210;37;21442;-62
2022/02/16 06:50:02;;;;;;;;;61.75;49.75;;;;;2.24;100.00;101279.72;3725037;38;20463;-62
2022/02/16 06:52:32;;;;;;;;;55.50;45.25;;;;;2.33;100.00;101292.41;3725491;38;21399;-62
2022/02/16 06:54:59;;;;;;;;;60.50;48.25;;;;;2.33;100.00;101286.22;3725045;38;21441;-61
2022/02/16 06:57:27;;;;;;;;;57.25;46.75;;;;;2.38;100.00;101291.22;3724780;38;20521;-62
2022/02/16 07:00:07;;;;;;;;;60.75;48.25;;;;;2.46;100.00;101297.69;3725135;38;21409;-62
2022/02/16 07:02:46;;;;;;;;;61.00;49.50;;;;;2.42;100.00;101296.22;3724740;37;21333;-61
2022/02/16 07:05:17;;;;;;;;;69.50;52.00;;;;;2.51;100.00;101295.53;3725175;38;20409;-60
2022/02/16 07:07:47;;;;;;;;;66.25;51.75;;;;;2.54;100.00;101292.66;3725459;38;21452;-60
2022/02/16 07:10:15;;;;;;;;;57.25;48.00;;;;;2.44;100.00;101270.25;3725368;37;21381;-59
2022/02/16 07:12:43;;;;;;;;;58.50;48.25;;;;;2.59;100.00;101286.97;3725195;37;21470;-61
2022/02/16 07:15:14;;;;;;;;;67.00;50.50;;;;;2.62;100.00;101286.69;3725351;38;21310;-62
2022/02/16 07:17:51;;;;;;;;;65.50;52.00;;;;;2.75;100.00;101287.50;3725101;38;21420;-62
2022/02/16 07:20:20;;;;;;;;;61.00;49.00;;;;;2.78;100.00;101284.59;3725207;38;21397;-60
2022/02/16 07:22:51;;;;;;;;;65.25;52.00;;;;;2.76;100.00;101291.00;3724807;37;21342;-60
2022/02/16 07:25:20;;;;;;;;;70.00;54.25;;;;;2.75;100.00;101286.62;3725227;37;21402;-62
2022/02/16 07:27:56;;;;;;;;;66.50;51.00;;;;;2.76;100.00;101283.84;3725104;38;21293;-60
2022/02/16 07:30:25;;;;;;;;;59.75;48.50;;;;;2.74;100.00;101275.09;3726358;37;21367;-60
2022/02/16 07:32:53;;;;;;;;;57.75;47.00;;;;;2.81;100.00;101281.69;3725338;37;21306;-61
2022/02/16 07:35:21;;;;;;;;;65.25;52.00;;;;;2.84;100.00;101270.75;3725161;37;21343;-61
2022/02/16 07:37:51;;;;;;;;;59.00;47.50;;;;;2.79;100.00;101270.25;3725012;37;21386;-62
2022/02/16 07:40:18;;;;;;;;;62.75;49.25;;;;;2.81;100.00;101271.00;3725151;37;21338;-60
2022/02/16 07:42:46;;;;;;;;;57.50;47.75;;;;;2.87;100.00;101275.03;3724971;38;21477;-66
2022/02/16 07:45:44;;;;;;;;;56.25;46.00;;;;;3.00;100.00;101267.78;3725037;37;21376;-66
2022/02/16 07:48:12;;;;;;;;;63.00;49.25;;;;;3.09;100.00;101261.72;3724891;38;21331;-65
2022/02/16 07:50:40;;;;;;;;;61.50;49.00;;;;;3.04;100.00;101260.37;3724521;38;21368;-67
2022/02/16 07:53:48;;;;;;;;;57.75;47.25;;;;;3.20;100.00;101259.03;3724812;38;21523;-64
2022/02/16 07:56:23;;;;;;;;;56.25;47.25;;;;;3.21;100.00;101225.12;3724868;37;21259;-66
2022/02/16 07:58:51;;;;;;;;;61.25;47.00;;;;;3.32;100.00;101236.69;3725246;38;21318;-67
2022/02/16 08:01:18;;;;;;;;;60.50;49.50;;;;;3.44;100.00;101247.41;3724857;38;21326;-66
2022/02/16 08:03:46;;;;;;;;;65.25;51.00;;;;;3.63;100.00;101247.66;3725033;38;21297;-63
2022/02/16 08:06:14;;;;;;;;;64.50;50.75;;;;;3.81;100.00;101245.31;3724949;37;21346;-65
2022/02/16 08:08:42;;;;;;;;;61.50;49.50;;;;;3.88;100.00;101233.13;3724840;37;21425;-65
2022/02/16 08:11:11;;;;;;;;;61.75;50.50;;;;;4.01;100.00;101227.63;3724820;38;21328;-63
2022/02/16 08:13:38;;;;;;;;;58.75;48.50;;;;;4.09;100.00;101214.47;3724924;37;21340;-64
2022/02/16 08:16:28;;;;;;;;;64.50;51.25;;;;;4.09;100.00;101222.50;3725804;37;21274;-64
2022/02/16 08:19:23;;;;;;;;;63.00;48.75;;;;;3.86;100.00;101169.00;3725754;38;21315;-64
2022/02/16 08:21:55;;;;;;;;;65.75;52.00;;;;;4.33;100.00;101217.78;3724850;37;21525;-65
2022/02/16 08:24:26;;;;;;;;;63.25;50.75;;;;;4.50;100.00;101221.75;3724782;37;21206;-63
2022/02/16 08:26:57;;;;;;;;;57.50;47.25;;;;;4.58;100.00;101230.00;3725316;38;21213;-62
2022/02/16 08:29:26;;;;;;;;;63.25;50.25;;;;;4.72;100.00;101224.28;3729329;37;21204;-63
2022/02/16 08:31:56;;;;;;;;;63.00;49.75;;;;;4.81;100.00;101233.41;3729555;37;21191;-62
2022/02/16 08:34:40;;;;;;;;;63.25;49.50;;;;;4.96;100.00;101234.78;3728491;38;21334;-62
2022/02/16 08:37:12;;;;;;;;;62.75;50.00;;;;;5.10;100.00;101228.25;3725350;37;21337;-64
2022/02/16 08:39:41;;;;;;;;;61.50;49.75;;;;;5.19;100.00;101230.97;3725623;37;21212;-64
2022/02/16 08:42:09;;;;;;;;;69.75;50.75;;;;;5.28;100.00;101226.63;3725239;37;21153;-65
2022/02/16 08:44:37;;;;;;;;;58.25;47.75;;;;;5.33;100.00;101217.19;3725445;38;21401;-65
2022/02/16 08:47:06;;;;;;;;;66.25;51.75;;;;;5.40;100.00;101208.59;3725359;38;21371;-64
2022/02/16 08:49:34;;;;;;;;;58.25;49.00;;;;;5.62;100.00;101211.97;3725061;37;21231;-65
2022/02/16 08:52:02;;;;;;;;;68.75;52.50;;;;;5.85;100.00;101225.16;3725819;38;21402;-61
2022/02/16 08:54:34;;;;;;;;;53.00;43.00;;;;;5.90;100.00;101217.56;3735857;38;21181;-64
2022/02/16 08:57:06;;;;;;;;;57.75;47.25;;;;;5.92;100.00;101227.19;3735455;37;21255;-63
2022/02/16 08:59:36;;;;;;;;;57.25;45.50;;;;;5.97;100.00;101216.87;3728427;38;21186;-62
2022/02/16 09:02:04;;;;;;;;;61.50;48.50;;;;;6.26;100.00;101232.19;3724605;37;21371;-63
2022/02/16 09:04:32;;;;;;;;;59.50;46.75;;;;;6.34;100.00;101220.75;3725013;37;21242;-62
2022/02/16 09:09:52;;;;;;;;;60.00;48.75;;;;;6.58;100.00;101211.28;3724781;38;21151;-63
2022/02/16 09:12:22;;;;;;;;;56.50;47.25;;;;;6.61;100.00;101216.37;3724316;38;21138;-62
2022/02/16 09:14:50;;;;;;;;;59.25;46.50;;;;;6.71;100.00;101200.25;3724130;38;21234;-63
2022/02/16 09:17:21;;;;;;;;;62.50;49.75;;;;;6.95;100.00;101202.44;3724594;38;21422;-63
2022/02/16 09:19:48;;;;;;;;;62.25;50.50;;;;;7.06;100.00;101202.28;3724259;38;21246;-61
2022/02/16 09:22:18;;;;;;;;;61.00;47.50;;;;;7.11;100.00;101186.56;3724175;38;21207;-62
2022/02/16 09:24:46;;;;;;;;;53.25;43.50;;;;;7.15;100.00;101170.97;3724649;37;21415;-64
2022/02/16 09:27:19;;;;;;;;;58.75;48.00;;;;;7.42;100.00;101189.00;3725162;37;21196;-62
2022/02/16 09:29:48;;;;;;;;;65.75;52.00;;;;;7.57;100.00;101182.13;3724770;38;21431;-63
2022/02/16 09:32:17;;;;;;;;;61.50;48.00;;;;;7.63;100.00;101179.69;3724759;37;21376;-64
2022/02/16 09:34:45;;;;;;;;;58.00;47.75;;;;;7.73;100.00;101168.84;3724829;37;21606;-63
2022/02/16 09:37:18;;;;;;;;;61.25;50.00;;;;;7.92;100.00;101167.88;3724638;38;21473;-65
2022/02/16 09:39:47;;;;;;;;;60.00;48.50;;;;;7.99;100.00;101163.56;3724843;38;21144;-64
2022/02/16 09:42:18;;;;;;;;;61.75;50.00;;;;;8.08;100.00;101159.97;3724520;38;21104;-62
2022/02/16 09:45:01;;;;;;;;;65.25;51.50;;;;;8.22;100.00;101139.72;3724392;37;21395;-63
2022/02/16 09:47:31;;;;;;;;;64.00;51.75;;;;;8.36;100.00;101136.47;3724358;37;21088;-63
2022/02/16 09:50:04;;;;;;;;;65.25;51.00;;;;;8.34;100.00;101113.38;3724371;37;21656;-64
2022/02/16 09:52:33;;;;;;;;;59.75;47.75;;;;;8.38;100.00;101103.97;3724322;37;21184;-63
2022/02/16 09:55:02;;;;;;;;;61.50;48.75;;;;;8.32;100.00;101101.87;3724400;38;21183;-64
2022/02/16 09:57:30;;;;;;;;;60.75;49.00;;;;;8.35;100.00;101097.03;3724685;38;21144;-65
2022/02/16 09:59:59;;;;;;;;;63.00;51.25;;;;;8.29;100.00;101100.34;3724775;38;21178;-65
2022/02/16 10:02:46;;;;;;;;;67.00;54.75;;;;;8.47;100.00;101108.44;3726139;37;21064;-64
2022/02/16 10:05:16;;;;;;;;;61.75;50.00;;;;;8.51;100.00;101104.41;3725151;37;21052;-67
2022/02/16 10:07:47;;;;;;;;;62.00;49.00;;;;;8.55;100.00;101097.69;3725494;38;21068;-65
2022/02/16 10:10:25;;;;;;;;;64.75;51.75;;;;;8.69;100.00;101082.78;3724839;38;21159;-65
2022/02/16 10:12:58;;;;;;;;;65.75;52.25;;;;;8.77;100.00;101081.00;3724794;38;21360;-67
2022/02/16 10:15:47;;;;;;;;;64.25;49.50;;;;;8.84;100.00;101071.22;3724781;37;21071;-65
2022/02/16 10:18:18;;;;;;;;;60.50;50.00;;;;;8.81;100.00;101065.34;3724606;37;21286;-65
2022/02/16 10:20:46;;;;;;;;;63.25;49.75;;;;;8.94;100.00;101071.13;3724837;38;21047;-64
2022/02/16 10:23:16;;;;;;;;;49.00;37.00;;;;;9.00;100.00;101061.53;3724894;37;21213;-66
2022/02/16 10:25:51;;;;;;;;;66.00;53.25;;;;;9.06;100.00;101044.69;3725123;37;21400;-67
2022/02/16 10:28:22;;;;;;;;;58.25;48.25;;;;;9.27;100.00;101048.66;3725432;38;21243;-67
2022/02/16 10:31:00;;;;;;;;;55.75;44.75;;;;;9.36;100.00;101043.31;3724389;37;21249;-67
2022/02/16 10:33:35;;;;;;;;;61.25;48.25;;;;;9.29;100.00;101025.03;3725089;37;21317;-66
2022/02/16 10:36:18;;;;;;;;;59.50;48.50;;;;;9.40;100.00;101036.53;3720846;38;87905;-66
2022/02/16 10:39:16;;;;;;;;;57.50;46.75;;;;;9.35;100.00;101038.91;3724436;38;21403;-62
2022/02/16 10:41:49;;;;;;;;;60.50;47.25;;;;;9.50;100.00;101039.94;3724083;37;21122;-64
2022/02/16 10:44:36;;;;;;;;;60.00;48.00;;;;;9.69;100.00;101039.66;3724840;38;21407;-67
2022/02/16 10:47:07;;;;;;;;;63.50;50.00;;;;;9.74;100.00;101006.72;3724759;38;21402;-64
2022/02/16 10:49:43;;;;;;;;;64.00;50.75;;;;;10.00;100.00;101034.44;3724355;38;21186;-64
2022/02/16 10:52:14;;;;;;;;;66.00;49.50;;;;;10.00;100.00;101034.44;3725245;37;21391;-64
2022/02/16 10:55:00;;;;;;;;;63.00;48.75;;;;;10.11;100.00;101030.56;3724872;37;21180;-65
2022/02/16 10:57:29;;;;;;;;;62.00;50.00;;;;;10.13;100.00;101026.66;3724982;37;21159;-64
2022/02/16 10:59:58;;;;;;;;;66.50;52.00;;;;;10.16;100.00;101026.31;3724988;37;21176;-64
2022/02/16 11:02:27;;;;;;;;;62.50;48.50;;;;;10.28;100.00;101016.87;3724699;38;21488;-68
2022/02/16 11:04:55;;;;;;;;;64.50;51.00;;;;;10.55;100.00;101018.34;3724679;37;21376;-64
2022/02/16 11:07:24;;;;;;;;;57.75;46.75;;;;;10.78;100.00;101013.06;3724665;37;21172;-64
2022/02/16 11:10:04;;;;;;;;;61.00;47.50;;;;;10.84;100.00;101006.09;3724990;37;21383;-64
2022/02/16 11:12:32;;;;;;;;;57.25;46.75;;;;;10.82;100.00;101008.97;3725066;37;21172;-63
2022/02/16 11:15:02;;;;;;;;;62.50;49.25;;;;;10.99;100.00;101004.31;3725105;38;21162;-64
2022/02/16 11:17:32;;;;;;;;;59.25;47.75;;;;;11.06;100.00;101012.59;3724929;37;21152;-63
2022/02/16 11:20:36;;;;;;;;;60.25;48.25;;;;;11.08;100.00;100992.44;3724728;37;21147;-65
2022/02/16 11:23:05;;;;;;;;;61.75;49.25;;;;;11.27;100.00;101000.16;3725098;38;21208;-65
2022/02/16 11:25:35;;;;;;;;;66.50;52.25;;;;;11.42;100.00;101000.25;3725167;38;21230;-65
2022/02/16 11:28:11;;;;;;;;;55.50;45.50;;;;;11.38;100.00;100992.63;3725157;38;21027;-64
2022/02/16 11:30:47;;;;;;;;;53.75;43.50;;;;;11.48;100.00;100999.50;3724903;37;21133;-64
2022/02/16 11:33:26;;;;;;;;;56.75;45.50;;;;;11.46;100.00;100988.00;3724613;38;21134;-63